Time;durP1;ratioP1;P1;durP2;ratioP2;P2;SDS_P1;SDS_P2;PMS_P1;PMS_P2;Temp;Humidity;BMP_temperature;BMP_pressure;BME280_temperature;BME280_humidity;BME280_pressure;Samples;Min_cycle;Max_cycle;Signal;HPM_P1;HPM_P2
2023/06/12 00:01:19;;;;;;;10.03;6.10;;;;;;;;;;5095529;28;20250;-67
2023/06/12 00:03:47;;;;;;;8.10;6.63;;;;;;;;;;5095065;28;20177;-66
2023/06/12 00:06:13;;;;;;;7.40;6.13;;;;;;;;;;5094873;28;20197;-66
2023/06/12 00:08:42;;;;;;;10.63;6.50;;;;;;;;;;5095155;28;20173;-66
2023/06/12 00:11:12;;;;;;;9.90;5.90;;;;;;;;;;5076807;28;20673;-66
2023/06/12 00:13:38;;;;;;;9.33;5.97;;;;;;;;;;5094704;28;20651;-66
2023/06/12 00:16:04;;;;;;;11.83;6.50;;;;;;;;;;5094929;28;20189;-67
2023/06/12 00:18:30;;;;;;;12.73;6.60;;;;;;;;;;5095012;28;20177;-67
2023/06/12 00:20:56;;;;;;;9.93;6.13;;;;;;;;;;5094682;28;20192;-66
2023/06/12 00:23:22;;;;;;;12.80;6.27;;;;;;;;;;5094621;28;20261;-67
2023/06/12 00:25:48;;;;;;;13.60;6.63;;;;;;;;;;5076279;28;20208;-66
2023/06/12 00:28:14;;;;;;;11.00;6.30;;;;;;;;;;5094587;28;20173;-66
2023/06/12 00:30:40;;;;;;;21.87;7.23;;;;;;;;;;5094469;28;20177;-67
2023/06/12 00:33:06;;;;;;;18.90;7.00;;;;;;;;;;5094833;28;20546;-67
2023/06/12 00:35:32;;;;;;;17.70;7.10;;;;;;;;;;5077078;28;20272;-67
2023/06/12 00:37:58;;;;;;;18.47;6.87;;;;;;;;;;5094377;28;20173;-67
2023/06/12 00:40:24;;;;;;;18.70;7.30;;;;;;;;;;5094314;28;20184;-67
2023/06/12 00:42:50;;;;;;;8.27;6.43;;;;;;;;;;5094180;28;20201;-65
2023/06/12 00:45:18;;;;;;;8.97;6.13;;;;;;;;;;5094229;28;20274;-65
2023/06/12 00:47:46;;;;;;;17.77;7.27;;;;;;;;;;5094223;28;20652;-67
2023/06/12 00:50:13;;;;;;;11.37;6.40;;;;;;;;;;5094423;28;20173;-65
2023/06/12 00:52:43;;;;;;;13.17;6.10;;;;;;;;;;5094187;28;20217;-65
2023/06/12 00:55:10;;;;;;;10.77;6.10;;;;;;;;;;5094122;28;20173;-65
2023/06/12 00:57:38;;;;;;;9.70;7.10;;;;;;;;;;5094132;28;20201;-65
2023/06/12 01:00:06;;;;;;;9.53;6.23;;;;;;;;;;5075114;28;20204;-65
2023/06/12 01:02:32;;;;;;;15.13;6.53;;;;;;;;;;5093924;28;20616;-65
2023/06/12 01:04:59;;;;;;;7.73;5.93;;;;;;;;;;5093827;28;20302;-65
2023/06/12 01:07:29;;;;;;;8.53;6.10;;;;;;;;;;5093951;28;20643;-65
2023/06/12 01:10:01;;;;;;;12.33;6.13;;;;;;;;;;5093883;28;20179;-67
2023/06/12 01:12:28;;;;;;;7.50;5.90;;;;;;;;;;5097869;28;20197;-66
2023/06/12 01:14:54;;;;;;;11.77;6.07;;;;;;;;;;5097916;28;20181;-64
2023/06/12 01:17:20;;;;;;;9.30;6.20;;;;;;;;;;5098583;28;20192;-64
2023/06/12 01:19:46;;;;;;;9.10;6.43;;;;;;;;;;5080917;28;20181;-63
2023/06/12 01:22:13;;;;;;;8.03;6.40;;;;;;;;;;5099489;28;20550;-63
2023/06/12 01:24:40;;;;;;;8.37;6.20;;;;;;;;;;5099094;28;20671;-65
2023/06/12 01:27:12;;;;;;;11.40;6.60;;;;;;;;;;5100197;28;20169;-65
2023/06/12 01:29:50;;;;;;;11.73;6.57;;;;;;;;;;5099708;28;20177;-64
2023/06/12 01:32:17;;;;;;;10.93;6.40;;;;;;;;;;5099708;28;20197;-63
2023/06/12 01:34:58;;;;;;;11.93;7.03;;;;;;;;;;5098817;28;20172;-66
2023/06/12 01:37:31;;;;;;;18.70;6.73;;;;;;;;;;5101204;28;20169;-63
2023/06/12 01:39:58;;;;;;;22.20;6.73;;;;;;;;;;5081796;28;20188;-64
2023/06/12 01:42:25;;;;;;;12.90;6.70;;;;;;;;;;5080034;28;20201;-63
2023/06/12 01:44:51;;;;;;;10.63;6.70;;;;;;;;;;5099623;28;20197;-64
2023/06/12 01:47:17;;;;;;;13.07;6.83;;;;;;;;;;5081336;28;20279;-63
2023/06/12 01:49:43;;;;;;;13.47;6.50;;;;;;;;;;5099751;28;20262;-63
2023/06/12 01:52:09;;;;;;;16.70;6.50;;;;;;;;;;5098798;28;20765;-63
2023/06/12 01:54:35;;;;;;;14.73;6.67;;;;;;;;;;5080197;28;20238;-64
2023/06/12 01:57:02;;;;;;;13.57;6.90;;;;;;;;;;5081564;28;20268;-64
2023/06/12 01:59:28;;;;;;;13.10;6.47;;;;;;;;;;5098670;28;20209;-64
2023/06/12 02:01:54;;;;;;;11.03;6.53;;;;;;;;;;5097938;28;20228;-64
2023/06/12 02:04:20;;;;;;;15.30;7.40;;;;;;;;;;5080202;28;20260;-64
2023/06/12 02:06:46;;;;;;;19.67;7.33;;;;;;;;;;5096864;28;20205;-64
2023/06/12 02:09:12;;;;;;;10.60;6.77;;;;;;;;;;5080637;28;20184;-64
2023/06/12 02:11:39;;;;;;;18.13;7.07;;;;;;;;;;5101484;28;20192;-64
2023/06/12 02:14:05;;;;;;;10.40;6.40;;;;;;;;;;5102233;28;20180;-63
2023/06/12 02:16:31;;;;;;;17.63;7.33;;;;;;;;;;5099920;28;20189;-64
2023/06/12 02:18:57;;;;;;;13.60;6.57;;;;;;;;;;5102691;28;20187;-65
2023/06/12 02:21:23;;;;;;;12.67;6.77;;;;;;;;;;5103142;28;20266;-64
2023/06/12 02:23:49;;;;;;;8.90;6.73;;;;;;;;;;5102480;28;20181;-64
2023/06/12 02:26:16;;;;;;;11.27;6.40;;;;;;;;;;5102886;28;20266;-64
2023/06/12 02:28:42;;;;;;;10.83;6.97;;;;;;;;;;5101366;28;20173;-64
2023/06/12 02:31:08;;;;;;;14.93;7.33;;;;;;;;;;5101059;28;20243;-64
2023/06/12 02:33:37;;;;;;;10.87;6.70;;;;;;;;;;5100990;28;20552;-64
2023/06/12 02:36:03;;;;;;;7.90;6.90;;;;;;;;;;5082750;28;20565;-64
2023/06/12 02:38:29;;;;;;;12.27;6.87;;;;;;;;;;5102389;28;20199;-64
2023/06/12 02:40:55;;;;;;;9.13;6.73;;;;;;;;;;5083881;28;20200;-64
2023/06/12 02:43:21;;;;;;;8.90;7.07;;;;;;;;;;5102711;28;20184;-64
2023/06/12 02:45:47;;;;;;;9.53;7.30;;;;;;;;;;5084158;28;20215;-64
2023/06/12 02:48:12;;;;;;;13.80;7.40;;;;;;;;;;5101238;28;20208;-64
2023/06/12 02:50:38;;;;;;;9.30;7.53;;;;;;;;;;5101229;28;20178;-63
2023/06/12 02:53:04;;;;;;;9.90;7.23;;;;;;;;;;5083128;28;20185;-64
2023/06/12 02:55:31;;;;;;;9.53;6.97;;;;;;;;;;5101476;28;20177;-64
2023/06/12 02:57:57;;;;;;;12.60;7.07;;;;;;;;;;5101173;28;20180;-66
2023/06/12 03:00:23;;;;;;;8.70;7.33;;;;;;;;;;5101071;28;20177;-64
2023/06/12 03:02:55;;;;;;;9.37;7.43;;;;;;;;;;5102353;28;20259;-64
2023/06/12 03:05:25;;;;;;;11.10;7.30;;;;;;;;;;5102898;28;20193;-64
2023/06/12 03:07:52;;;;;;;12.70;7.23;;;;;;;;;;5102543;28;20184;-64
2023/06/12 03:10:18;;;;;;;9.60;7.67;;;;;;;;;;5102405;28;20169;-64
2023/06/12 03:12:44;;;;;;;10.90;6.60;;;;;;;;;;5103457;28;20330;-64
2023/06/12 03:15:14;;;;;;;16.07;7.53;;;;;;;;;;5103040;28;20181;-64
2023/06/12 03:17:40;;;;;;;11.63;7.37;;;;;;;;;;5085120;28;20188;-64
2023/06/12 03:20:07;;;;;;;13.60;7.67;;;;;;;;;;5104002;28;20177;-63
2023/06/12 03:22:33;;;;;;;10.30;7.13;;;;;;;;;;5103500;28;20206;-63
2023/06/12 03:24:59;;;;;;;11.50;7.17;;;;;;;;;;5103768;28;20212;-63
2023/06/12 03:27:28;;;;;;;12.27;7.87;;;;;;;;;;5085648;28;20205;-63
2023/06/12 03:29:54;;;;;;;13.77;7.73;;;;;;;;;;5085434;28;20177;-63
2023/06/12 03:32:20;;;;;;;12.87;7.10;;;;;;;;;;5102727;28;20196;-64
2023/06/12 03:34:47;;;;;;;13.87;7.27;;;;;;;;;;5104057;28;20177;-64
2023/06/12 03:37:13;;;;;;;11.10;7.17;;;;;;;;;;5102035;28;20180;-64
2023/06/12 03:39:39;;;;;;;15.43;7.33;;;;;;;;;;5084341;28;20178;-64
2023/06/12 03:42:06;;;;;;;11.47;6.67;;;;;;;;;;5100835;28;20200;-64
2023/06/12 03:44:32;;;;;;;13.30;7.20;;;;;;;;;;5102330;28;20176;-64
2023/06/12 03:46:58;;;;;;;9.17;7.40;;;;;;;;;;5082826;28;20639;-64
2023/06/12 03:49:24;;;;;;;9.57;6.93;;;;;;;;;;5101825;28;20184;-64
2023/06/12 03:51:50;;;;;;;7.90;6.60;;;;;;;;;;5101014;28;20208;-64
2023/06/12 03:54:18;;;;;;;8.50;6.83;;;;;;;;;;5101055;28;20180;-65
2023/06/12 03:56:44;;;;;;;11.57;7.13;;;;;;;;;;5082956;28;20181;-64
2023/06/12 03:59:11;;;;;;;9.83;7.57;;;;;;;;;;5083260;28;20180;-64
2023/06/12 04:01:38;;;;;;;9.63;7.63;;;;;;;;;;5102087;28;20266;-64
2023/06/12 04:04:05;;;;;;;12.43;7.30;;;;;;;;;;5103300;28;20177;-64
2023/06/12 04:06:32;;;;;;;8.50;7.07;;;;;;;;;;5083626;28;20219;-64
2023/06/12 04:09:00;;;;;;;14.37;7.40;;;;;;;;;;5102396;28;20647;-64
2023/06/12 04:11:26;;;;;;;10.60;7.87;;;;;;;;;;5086474;28;20197;-65
2023/06/12 04:13:52;;;;;;;9.50;6.53;;;;;;;;;;5084695;28;20241;-65
2023/06/12 04:16:20;;;;;;;7.63;6.77;;;;;;;;;;5104256;28;20184;-64
2023/06/12 04:18:46;;;;;;;8.93;7.20;;;;;;;;;;5103286;28;20175;-66
2023/06/12 04:21:12;;;;;;;11.07;7.03;;;;;;;;;;5103723;28;20193;-64
2023/06/12 04:23:41;;;;;;;8.17;6.73;;;;;;;;;;5084291;28;20177;-64
2023/06/12 04:26:07;;;;;;;10.43;7.13;;;;;;;;;;5084743;28;20250;-64
2023/06/12 04:28:36;;;;;;;8.60;7.20;;;;;;;;;;5102614;28;20238;-64
2023/06/12 04:31:02;;;;;;;9.73;6.80;;;;;;;;;;5102997;28;20189;-63
2023/06/12 04:33:32;;;;;;;10.23;6.87;;;;;;;;;;5102961;28;20173;-64
2023/06/12 04:36:02;;;;;;;8.40;6.77;;;;;;;;;;5098933;28;20185;-65
2023/06/12 04:38:30;;;;;;;10.13;6.97;;;;;;;;;;5097764;28;20713;-65
2023/06/12 04:40:58;;;;;;;12.47;7.10;;;;;;;;;;5098431;28;20246;-63
2023/06/12 04:43:24;;;;;;;14.57;6.93;;;;;;;;;;5096831;28;20173;-63
2023/06/12 04:45:51;;;;;;;14.23;7.37;;;;;;;;;;5098800;28;20258;-64
2023/06/12 04:48:18;;;;;;;13.77;7.30;;;;;;;;;;5099975;28;20207;-64
2023/06/12 04:50:44;;;;;;;;;;;;;;;;;;5099798;28;20161;-64
2023/06/12 04:53:12;;;;;;;13.27;7.50;;;;;;;;;;5081387;28;20195;-64
2023/06/12 04:55:38;;;;;;;15.80;7.13;;;;;;;;;;5081346;28;20189;-64
2023/06/12 04:58:04;;;;;;;12.87;7.63;;;;;;;;;;5099667;28;20177;-65
2023/06/12 05:00:30;;;;;;;17.97;7.90;;;;;;;;;;5099679;28;20590;-65
2023/06/12 05:02:58;;;;;;;11.63;7.23;;;;;;;;;;5100004;28;20197;-64
2023/06/12 05:05:27;;;;;;;14.57;7.27;;;;;;;;;;5082975;28;20240;-64
2023/06/12 05:07:53;;;;;;;11.53;6.80;;;;;;;;;;5101870;28;20555;-64
2023/06/12 05:10:19;;;;;;;12.67;7.37;;;;;;;;;;5100873;28;20173;-64
2023/06/12 05:12:45;;;;;;;13.43;8.00;;;;;;;;;;5101260;28;20197;-64
2023/06/12 05:15:11;;;;;;;16.27;7.40;;;;;;;;;;5102475;28;20268;-65
2023/06/12 05:17:37;;;;;;;15.90;7.57;;;;;;;;;;5083893;28;20207;-64
2023/06/12 05:20:08;;;;;;;21.10;7.37;;;;;;;;;;5099238;28;20173;-64
2023/06/12 05:22:34;;;;;;;19.60;7.77;;;;;;;;;;5098773;28;20193;-64
2023/06/12 05:25:00;;;;;;;13.47;7.10;;;;;;;;;;5099467;28;20662;-64
2023/06/12 05:27:26;;;;;;;18.63;8.33;;;;;;;;;;5099503;28;20252;-64
2023/06/12 05:29:52;;;;;;;15.20;7.97;;;;;;;;;;5080427;28;20178;-64
2023/06/12 05:32:18;;;;;;;15.23;7.93;;;;;;;;;;5080965;28;20200;-64
2023/06/12 05:34:44;;;;;;;17.03;7.73;;;;;;;;;;5100092;28;20182;-64
2023/06/12 05:37:10;;;;;;;16.67;7.57;;;;;;;;;;5082040;28;20267;-64
2023/06/12 05:39:36;;;;;;;19.37;7.70;;;;;;;;;;5100559;28;20173;-65
2023/06/12 05:42:02;;;;;;;18.23;7.37;;;;;;;;;;5101131;28;20201;-64
2023/06/12 05:44:28;;;;;;;15.23;7.77;;;;;;;;;;5083348;28;20642;-65
2023/06/12 05:46:54;;;;;;;14.87;7.40;;;;;;;;;;5100361;28;20197;-64
2023/06/12 05:49:20;;;;;;;8.03;6.67;;;;;;;;;;5116753;23;20244;-67
2023/06/12 05:51:46;;;;;;;13.70;7.13;;;;;;;;;;5075181;28;20177;-67
2023/06/12 05:54:12;;;;;;;12.77;7.27;;;;;;;;;;5093179;28;20635;-67
2023/06/12 05:56:38;;;;;;;14.63;7.10;;;;;;;;;;5075052;28;20173;-67
2023/06/12 05:59:04;;;;;;;13.30;7.13;;;;;;;;;;5093339;28;20228;-67
2023/06/12 06:01:31;;;;;;;9.23;7.10;;;;;;;;;;5074988;28;20213;-67
2023/06/12 06:03:58;;;;;;;11.97;6.80;;;;;;;;;;5093197;28;20222;-67
2023/06/12 06:06:24;;;;;;;13.47;6.80;;;;;;;;;;5093555;28;20201;-67
2023/06/12 06:08:50;;;;;;;17.23;7.23;;;;;;;;;;5074901;28;20666;-67
2023/06/12 06:11:16;;;;;;;10.40;6.87;;;;;;;;;;5093074;28;20183;-67
2023/06/12 06:13:43;;;;;;;7.63;6.87;;;;;;;;;;5092947;28;20551;-67
2023/06/12 06:16:10;;;;;;;9.10;6.20;;;;;;;;;;5093164;28;20617;-67
2023/06/12 06:18:36;;;;;;;14.43;7.63;;;;;;;;;;5074775;28;20193;-67
2023/06/12 06:21:03;;;;;;;13.57;7.37;;;;;;;;;;5093039;28;20259;-66
2023/06/12 06:23:29;;;;;;;12.63;7.10;;;;;;;;;;5093066;28;20185;-67
2023/06/12 06:25:55;;;;;;;13.00;6.90;;;;;;;;;;5093178;28;20197;-67
2023/06/12 06:28:22;;;;;;;15.70;7.47;;;;;;;;;;5092879;28;20555;-67
2023/06/12 06:30:48;;;;;;;13.83;7.30;;;;;;;;;;5092792;28;20172;-68
2023/06/12 06:33:14;;;;;;;15.90;7.20;;;;;;;;;;5092733;28;20177;-67
2023/06/12 06:35:40;;;;;;;11.13;7.30;;;;;;;;;;5092919;28;20551;-67
2023/06/12 06:38:06;;;;;;;8.13;6.43;;;;;;;;;;5092786;28;20255;-68
2023/06/12 06:40:32;;;;;;;7.73;6.43;;;;;;;;;;5092891;28;20181;-67
2023/06/12 06:42:57;;;;;;;11.93;6.80;;;;;;;;;;5074749;28;20187;-67
2023/06/12 06:45:23;;;;;;;13.30;6.47;;;;;;;;;;5093037;28;20663;-67
2023/06/12 06:47:49;;;;;;;12.77;7.07;;;;;;;;;;5092852;28;20621;-67
2023/06/12 06:50:16;;;;;;;12.90;6.80;;;;;;;;;;5074821;28;20172;-67
2023/06/12 06:52:42;;;;;;;15.00;6.77;;;;;;;;;;5093153;28;20169;-67
2023/06/12 06:55:08;;;;;;;9.57;6.57;;;;;;;;;;5093460;28;20181;-67
2023/06/12 06:57:37;;;;;;;9.87;6.33;;;;;;;;;;5094503;28;20569;-67
2023/06/12 07:00:05;;;;;;;10.43;6.53;;;;;;;;;;5096988;28;20193;-67
2023/06/12 07:02:31;;;;;;;11.13;5.97;;;;;;;;;;5078603;28;20189;-67
2023/06/12 07:04:57;;;;;;;11.27;7.40;;;;;;;;;;5096562;28;20246;-67
2023/06/12 07:07:23;;;;;;;9.67;6.33;;;;;;;;;;5078222;28;20185;-68
2023/06/12 07:09:49;;;;;;;8.40;6.70;;;;;;;;;;5096405;28;20189;-67
2023/06/12 07:12:15;;;;;;;8.50;5.93;;;;;;;;;;5096686;28;20178;-68
2023/06/12 07:14:41;;;;;;;9.27;6.80;;;;;;;;;;5078321;28;20184;-68
2023/06/12 07:17:07;;;;;;;17.10;7.33;;;;;;;;;;5096214;28;20173;-68
2023/06/12 07:19:33;;;;;;;7.30;6.50;;;;;;;;;;5077781;28;20250;-67
2023/06/12 07:21:59;;;;;;;14.83;7.90;;;;;;;;;;5077868;28;20271;-67
2023/06/12 07:24:25;;;;;;;8.47;7.33;;;;;;;;;;5096341;28;20176;-69
2023/06/12 07:26:52;;;;;;;9.73;8.13;;;;;;;;;;5095944;28;20303;-67
2023/06/12 07:29:19;;;;;;;10.80;6.97;;;;;;;;;;5095653;28;20576;-67
2023/06/12 07:31:47;;;;;;;9.67;7.80;;;;;;;;;;5077415;28;20173;-68
2023/06/12 07:34:13;;;;;;;8.60;6.30;;;;;;;;;;5077513;28;20184;-67
2023/06/12 07:36:39;;;;;;;13.60;7.40;;;;;;;;;;5077838;28;20654;-68
2023/06/12 07:39:05;;;;;;;8.80;7.07;;;;;;;;;;5095557;28;20201;-69
2023/06/12 07:41:31;;;;;;;7.47;5.97;;;;;;;;;;5077642;28;20258;-69
2023/06/12 07:43:57;;;;;;;8.97;5.97;;;;;;;;;;5096127;28;20209;-68
2023/06/12 07:46:23;;;;;;;12.33;6.10;;;;;;;;;;5095383;28;20197;-67
2023/06/12 07:48:49;;;;;;;10.53;7.20;;;;;;;;;;5095472;28;20291;-67
2023/06/12 07:51:16;;;;;;;14.07;7.67;;;;;;;;;;5095129;28;20205;-68
2023/06/12 07:53:42;;;;;;;14.73;7.30;;;;;;;;;;5077178;28;20181;-68
2023/06/12 07:56:08;;;;;;;10.43;6.83;;;;;;;;;;5077241;28;20235;-69
2023/06/12 07:58:35;;;;;;;13.83;7.00;;;;;;;;;;5077391;28;20209;-67
2023/06/12 08:01:04;;;;;;;10.30;6.70;;;;;;;;;;5095482;28;20231;-67
2023/06/12 08:03:30;;;;;;;6.67;6.07;;;;;;;;;;5077393;28;20223;-67
2023/06/12 08:05:56;;;;;;;10.63;7.03;;;;;;;;;;5095044;28;20201;-67
2023/06/12 08:08:22;;;;;;;6.87;6.17;;;;;;;;;;5094681;28;20192;-67
2023/06/12 08:10:48;;;;;;;10.07;6.63;;;;;;;;;;5094986;28;20177;-67
2023/06/12 08:13:14;;;;;;;10.67;6.90;;;;;;;;;;5076817;28;20208;-67
2023/06/12 08:15:40;;;;;;;9.40;6.40;;;;;;;;;;5094858;28;20185;-67
2023/06/12 08:18:06;;;;;;;8.43;6.40;;;;;;;;;;5094721;28;20271;-67
2023/06/12 08:20:32;;;;;;;7.67;6.87;;;;;;;;;;5095352;28;20256;-67
2023/06/12 08:22:58;;;;;;;11.07;6.77;;;;;;;;;;5094810;28;20176;-67
2023/06/12 08:25:25;;;;;;;10.00;7.83;;;;;;;;;;5094849;28;20201;-67
2023/06/12 08:27:51;;;;;;;16.33;8.23;;;;;;;;;;5076523;28;20538;-67
2023/06/12 08:30:17;;;;;;;7.57;6.77;;;;;;;;;;5094741;28;20180;-67
2023/06/12 08:32:45;;;;;;;9.00;6.40;;;;;;;;;;5076702;28;20273;-67
2023/06/12 08:35:11;;;;;;;8.20;6.93;;;;;;;;;;5095287;28;20200;-67
2023/06/12 08:37:37;;;;;;;13.20;7.07;;;;;;;;;;5095064;28;20188;-67
2023/06/12 08:40:05;;;;;;;7.37;6.43;;;;;;;;;;5076581;28;20201;-67
2023/06/12 08:42:31;;;;;;;9.53;7.10;;;;;;;;;;5076456;28;20287;-67
2023/06/12 08:45:03;;;;;;;12.03;8.37;;;;;;;;;;5076326;28;20173;-67
2023/06/12 08:47:33;;;;;;;7.93;7.13;;;;;;;;;;5076242;28;20604;-67
2023/06/12 08:49:59;;;;;;;8.10;6.90;;;;;;;;;;5076120;28;20221;-67
2023/06/12 08:52:26;;;;;;;7.50;6.33;;;;;;;;;;5094898;28;20173;-66
2023/06/12 08:54:52;;;;;;;11.27;7.03;;;;;;;;;;5094676;28;20181;-66
2023/06/12 08:57:19;;;;;;;8.90;6.50;;;;;;;;;;5094697;28;20177;-66
2023/06/12 08:59:45;;;;;;;7.17;6.27;;;;;;;;;;5094179;28;20189;-66
2023/06/12 09:02:12;;;;;;;9.63;6.60;;;;;;;;;;5094713;28;20260;-66
2023/06/12 09:04:49;;;;;;;7.53;6.47;;;;;;;;;;5094748;28;20256;-66
2023/06/12 09:07:18;;;;;;;6.90;6.20;;;;;;;;;;5094224;28;20623;-66
2023/06/12 09:09:46;;;;;;;6.87;6.20;;;;;;;;;;5094569;28;20243;-67
2023/06/12 09:12:12;;;;;;;8.90;5.97;;;;;;;;;;5094335;28;20173;-66
2023/06/12 09:14:39;;;;;;;10.10;6.57;;;;;;;;;;5094716;28;20640;-65
2023/06/12 09:17:07;;;;;;;7.37;6.67;;;;;;;;;;5094299;28;20252;-66
2023/06/12 09:19:46;;;;;;;7.37;6.67;;;;;;;;;;5075242;28;20201;-66
2023/06/12 09:22:13;;;;;;;9.50;7.10;;;;;;;;;;5094219;28;20161;-66
2023/06/12 09:24:40;;;;;;;10.43;6.23;;;;;;;;;;5094109;28;20550;-66
2023/06/12 09:27:06;;;;;;;7.57;6.80;;;;;;;;;;5094186;28;20209;-66
2023/06/12 09:29:36;;;;;;;8.23;6.80;;;;;;;;;;5093713;28;20288;-66
2023/06/12 09:32:03;;;;;;;8.53;6.87;;;;;;;;;;5075478;28;20601;-66
2023/06/12 09:34:31;;;;;;;9.73;6.77;;;;;;;;;;5093682;28;20639;-66
2023/06/12 09:36:57;;;;;;;9.63;6.80;;;;;;;;;;5093771;28;20173;-66
2023/06/12 09:39:24;;;;;;;11.57;7.30;;;;;;;;;;5093516;28;20199;-66
2023/06/12 09:41:50;;;;;;;10.83;7.27;;;;;;;;;;5093868;28;20169;-67
2023/06/12 09:44:23;;;;;;;10.77;7.33;;;;;;;;;;5093383;28;20173;-67
2023/06/12 09:46:50;;;;;;;8.27;6.60;;;;;;;;;;5093384;28;20297;-67
2023/06/12 09:49:17;;;;;;;8.77;6.97;;;;;;;;;;5093634;28;20231;-67
2023/06/12 09:51:46;;;;;;;8.30;7.20;;;;;;;;;;5075851;28;20181;-66
2023/06/12 09:54:15;;;;;;;7.00;6.30;;;;;;;;;;5093565;28;20173;-65
2023/06/12 09:56:42;;;;;;;7.70;7.00;;;;;;;;;;5093326;28;20177;-66
2023/06/12 09:59:09;;;;;;;9.57;6.87;;;;;;;;;;5093528;28;20197;-66
2023/06/12 10:01:39;;;;;;;7.50;6.67;;;;;;;;;;5075236;28;20199;-66
2023/06/12 10:04:10;;;;;;;9.50;7.07;;;;;;;;;;5093198;28;20177;-66
2023/06/12 10:06:39;;;;;;;10.50;6.70;;;;;;;;;;5093356;28;20185;-66
2023/06/12 10:09:06;;;;;;;7.50;6.27;;;;;;;;;;5092999;28;20674;-66
2023/06/12 10:11:33;;;;;;;8.77;7.50;;;;;;;;;;5075064;28;20177;-66
2023/06/12 10:13:59;;;;;;;9.40;7.97;;;;;;;;;;5093535;28;20177;-68
2023/06/12 10:16:26;;;;;;;13.07;7.37;;;;;;;;;;5093113;28;20174;-66
2023/06/12 10:18:52;;;;;;;8.20;7.37;;;;;;;;;;5093255;28;20193;-66
2023/06/12 10:21:19;;;;;;;9.50;7.60;;;;;;;;;;5074947;28;20188;-66
2023/06/12 10:23:45;;;;;;;10.13;7.23;;;;;;;;;;5075025;28;20674;-66
2023/06/12 10:26:12;;;;;;;13.77;8.33;;;;;;;;;;5093681;28;20201;-66
2023/06/12 10:28:38;;;;;;;9.30;6.87;;;;;;;;;;5093151;28;20266;-66
2023/06/12 10:31:19;;;;;;;12.30;7.50;;;;;;;;;;5094158;28;20640;-66
2023/06/12 10:34:05;;;;;;;9.03;8.13;;;;;;;;;;5078814;28;20173;-66
2023/06/12 10:36:39;;;;;;;10.37;8.43;;;;;;;;;;5089584;28;20200;-66
2023/06/12 10:39:07;;;;;;;14.30;7.80;;;;;;;;;;5096729;28;20188;-66
2023/06/12 10:41:33;;;;;;;9.60;8.03;;;;;;;;;;5096871;28;20206;-66
2023/06/12 10:44:02;;;;;;;8.27;6.70;;;;;;;;;;5097108;28;20186;-66
2023/06/12 10:46:48;;;;;;;8.57;6.57;;;;;;;;;;5096739;28;20196;-66
2023/06/12 10:49:14;;;;;;;12.73;6.37;;;;;;;;;;5096442;28;20212;-66
2023/06/12 10:51:47;;;;;;;11.60;7.00;;;;;;;;;;5078210;28;20188;-66
2023/06/12 10:54:25;;;;;;;8.93;6.57;;;;;;;;;;5096491;28;20690;-66
2023/06/12 10:57:00;;;;;;;10.77;6.30;;;;;;;;;;5096754;28;20157;-66
2023/06/12 10:59:36;;;;;;;7.37;6.37;;;;;;;;;;5096291;28;20192;-66
2023/06/12 11:02:05;;;;;;;8.75;5.72;;;;;;;;;;5078093;28;20184;-66
2023/06/12 11:04:37;;;;;;;8.27;6.37;;;;;;;;;;5077990;28;20203;-66
2023/06/12 11:07:04;;;;;;;12.47;6.20;;;;;;;;;;5078059;28;20201;-66
2023/06/12 11:09:39;;;;;;;9.53;6.20;;;;;;;;;;5096108;28;20193;-66
2023/06/12 11:12:06;;;;;;;7.15;6.43;;;;;;;;;;5096252;28;20152;-67
2023/06/12 11:14:32;;;;;;;6.78;6.15;;;;;;;;;;5077813;28;20643;-66
2023/06/12 11:16:59;;;;;;;8.80;6.38;;;;;;;;;;5096111;28;20213;-66
2023/06/12 11:19:28;;;;;;;12.95;6.53;;;;;;;;;;5095981;28;20204;-66
2023/06/12 11:21:57;;;;;;;11.73;6.47;;;;;;;;;;5095938;28;20251;-66
2023/06/12 11:24:23;;;;;;;13.50;7.13;;;;;;;;;;5077704;28;20638;-66
2023/06/12 11:26:50;;;;;;;7.32;6.63;;;;;;;;;;5096014;28;20193;-66
2023/06/12 11:29:17;;;;;;;7.40;6.25;;;;;;;;;;5095882;28;20288;-66
2023/06/12 11:31:48;;;;;;;6.75;6.07;;;;;;;;;;5077925;28;20673;-66
2023/06/12 11:34:14;;;;;;;7.90;5.97;;;;;;;;;;5096061;28;20165;-67
2023/06/12 11:36:40;;;;;;;6.82;6.22;;;;;;;;;;5096312;28;20530;-66
2023/06/12 11:39:17;;;;;;;10.38;6.22;;;;;;;;;;5095651;28;20193;-67
2023/06/12 11:41:43;;;;;;;6.78;5.50;;;;;;;;;;5096063;28;20165;-67
2023/06/12 11:44:09;;;;;;;6.18;5.57;;;;;;;;;;5095002;28;20226;-67
2023/06/12 11:46:35;;;;;;;11.00;6.03;;;;;;;;;;5077327;28;20209;-67
2023/06/12 11:49:01;;;;;;;7.75;5.68;;;;;;;;;;5095194;28;20759;-67
2023/06/12 11:51:27;;;;;;;6.63;5.93;;;;;;;;;;5095743;28;20646;-67
2023/06/12 11:53:53;;;;;;;8.07;6.03;;;;;;;;;;5077224;28;20173;-67
2023/06/12 11:56:21;;;;;;;6.85;6.20;;;;;;;;;;5095311;28;20554;-67
2023/06/12 11:58:47;;;;;;;7.05;6.35;;;;;;;;;;5095458;28;20730;-67
2023/06/12 12:01:14;;;;;;;7.30;6.10;;;;;;;;;;5095158;28;20265;-67
2023/06/12 12:03:40;;;;;;;9.73;6.00;;;;;;;;;;5077173;28;20180;-67
2023/06/12 12:06:06;;;;;;;7.38;6.07;;;;;;;;;;5076855;28;20197;-67
2023/06/12 12:08:35;;;;;;;9.25;6.30;;;;;;;;;;5094945;28;20553;-67
2023/06/12 12:11:15;;;;;;;7.82;7.03;;;;;;;;;;5094983;28;20168;-67
2023/06/12 12:13:52;;;;;;;7.55;6.75;;;;;;;;;;5076756;28;20161;-67
2023/06/12 12:16:24;;;;;;;13.55;7.50;;;;;;;;;;5076809;28;20252;-67
2023/06/12 12:18:50;;;;;;;6.72;6.20;;;;;;;;;;5076678;28;20283;-67
2023/06/12 12:21:16;;;;;;;7.15;6.57;;;;;;;;;;5076842;28;20541;-67
2023/06/12 12:23:43;;;;;;;12.02;6.22;;;;;;;;;;5076826;28;20184;-67
2023/06/12 12:26:12;;;;;;;6.60;5.70;;;;;;;;;;5076934;28;20200;-67
2023/06/12 12:28:39;;;;;;;6.93;5.97;;;;;;;;;;5096206;28;20261;-67
2023/06/12 12:31:05;;;;;;;7.25;5.93;;;;;;;;;;5078586;28;20565;-67
2023/06/12 12:33:31;;;;;;;10.63;6.80;;;;;;;;;;5096757;28;20172;-67
2023/06/12 12:36:00;;;;;;;6.80;6.20;;;;;;;;;;5095704;28;20165;-67
2023/06/12 12:38:26;;;;;;;8.85;6.72;;;;;;;;;;5094730;28;20236;-67
2023/06/12 12:40:52;;;;;;;7.82;6.90;;;;;;;;;;5094752;28;20177;-67
2023/06/12 12:43:18;;;;;;;11.65;7.97;;;;;;;;;;5095102;28;20177;-66
2023/06/12 12:45:44;;;;;;;12.00;8.02;;;;;;;;;;5094750;28;20778;-66
2023/06/12 12:48:10;;;;;;;10.57;7.28;;;;;;;;;;5075959;28;20291;-67
2023/06/12 12:50:36;;;;;;;9.20;7.05;;;;;;;;;;5076279;28;20561;-67
2023/06/12 12:53:02;;;;;;;7.53;6.63;;;;;;;;;;5094946;28;20176;-67
2023/06/12 12:55:32;;;;;;;9.98;6.15;;;;;;;;;;5093624;28;20177;-67
2023/06/12 12:57:58;;;;;;;12.50;6.70;;;;;;;;;;5076451;28;20667;-67
2023/06/12 13:00:24;;;;;;;8.25;5.82;;;;;;;;;;5094724;28;20226;-66
2023/06/12 13:02:50;;;;;;;7.25;6.57;;;;;;;;;;5094207;28;20177;-66
2023/06/12 13:05:16;;;;;;;8.60;7.03;;;;;;;;;;5093903;28;20571;-66
2023/06/12 13:07:43;;;;;;;9.77;6.43;;;;;;;;;;5094204;28;20173;-66
2023/06/12 13:10:09;;;;;;;10.90;6.45;;;;;;;;;;5075846;28;20235;-66
2023/06/12 13:12:35;;;;;;;7.07;6.57;;;;;;;;;;5093896;28;20650;-66
2023/06/12 13:15:01;;;;;;;8.05;6.75;;;;;;;;;;5094041;28;20176;-67
2023/06/12 13:17:27;;;;;;;7.95;6.63;;;;;;;;;;5075737;28;20165;-67
2023/06/12 13:19:53;;;;;;;7.60;6.80;;;;;;;;;;5093694;28;20189;-67
2023/06/12 13:22:19;;;;;;;7.68;6.60;;;;;;;;;;5075520;28;20183;-67
2023/06/12 13:24:45;;;;;;;7.70;6.20;;;;;;;;;;5075635;28;20635;-67
2023/06/12 13:27:11;;;;;;;7.47;6.75;;;;;;;;;;5093567;28;20211;-67
2023/06/12 13:29:38;;;;;;;9.90;6.57;;;;;;;;;;5075920;28;20619;-67
2023/06/12 13:32:05;;;;;;;6.82;6.30;;;;;;;;;;5093635;28;20256;-67
2023/06/12 13:34:31;;;;;;;10.73;7.15;;;;;;;;;;5075265;28;20177;-67
2023/06/12 13:36:57;;;;;;;8.48;7.63;;;;;;;;;;5093527;28;20179;-66
2023/06/12 13:39:23;;;;;;;8.38;7.38;;;;;;;;;;5093448;28;20201;-67
2023/06/12 13:41:49;;;;;;;38.33;8.55;;;;;;;;;;5075388;28;20180;-67
2023/06/12 13:44:15;;;;;;;22.70;7.73;;;;;;;;;;5075505;28;20233;-66
2023/06/12 13:46:43;;;;;;;12.17;7.80;;;;;;;;;;5093568;28;20208;-67
2023/06/12 13:49:09;;;;;;;10.15;7.93;;;;;;;;;;5074962;28;20236;-67
2023/06/12 13:51:37;;;;;;;8.60;7.57;;;;;;;;;;5093978;28;20248;-67
2023/06/12 13:54:03;;;;;;;9.03;7.27;;;;;;;;;;5093222;28;20174;-67
2023/06/12 13:56:30;;;;;;;10.63;7.27;;;;;;;;;;5093523;28;20181;-67
2023/06/12 13:58:56;;;;;;;10.43;7.63;;;;;;;;;;5093129;28;20211;-68
2023/06/12 14:01:21;;;;;;;8.27;7.47;;;;;;;;;;5093293;28;20710;-67
2023/06/12 14:03:47;;;;;;;9.37;8.30;;;;;;;;;;5093113;28;20183;-66
2023/06/12 14:06:14;;;;;;;14.37;7.97;;;;;;;;;;5076023;28;20579;-67
2023/06/12 14:08:40;;;;;;;11.60;7.33;;;;;;;;;;5097291;28;20200;-66
2023/06/12 14:11:10;;;;;;;12.77;8.27;;;;;;;;;;5097854;28;20570;-67
2023/06/12 14:13:36;;;;;;;12.27;8.00;;;;;;;;;;5079148;28;20263;-66
2023/06/12 14:16:02;;;;;;;14.17;8.63;;;;;;;;;;5097417;28;20176;-66
2023/06/12 14:18:29;;;;;;;9.60;7.27;;;;;;;;;;5097141;28;20218;-66
2023/06/12 14:20:55;;;;;;;9.27;8.17;;;;;;;;;;5079087;28;20204;-67
2023/06/12 14:23:21;;;;;;;21.50;8.70;;;;;;;;;;5097313;28;20169;-67
2023/06/12 14:25:47;;;;;;;10.23;8.17;;;;;;;;;;5097053;28;20246;-65
2023/06/12 14:28:13;;;;;;;11.30;7.67;;;;;;;;;;5097529;28;20670;-65
2023/06/12 14:30:39;;;;;;;9.60;8.60;;;;;;;;;;5097400;28;20654;-66
2023/06/12 14:33:05;;;;;;;8.50;7.60;;;;;;;;;;5097017;28;20181;-66
2023/06/12 14:35:31;;;;;;;12.60;8.03;;;;;;;;;;5096892;28;20177;-65